Terminal Aerodrome Forecast
Issued by NWS

Home | Current Version | Previous Version | Text Only | Print | Product List | Glossary On
Versions: 1 2 3 4 5 6 7 8 9 10 11 12 13 14 15 16
000
FTAK31 PAFA 120524
TAFAFA
TAF
PAFA 120524Z 1206/1312 VRB03KT P6SM SCT050 BKN100 BKN200
      WS012/18025KT
     FM120900 04004KT P6SM SCT050 BKN100 BKN200=

USA.gov is the U.S. government's official web portal to all federal, state and local government web resources and services.